sensor_id;sensor_type;location;lat;lon;timestamp;P1;durP1;ratioP1;P2;durP2;ratioP2
70715;SDS011;59053;50.832;12.882;2022-10-26T00:01:21;12.57;;;5.28;;
70715;SDS011;59053;50.832;12.882;2022-10-26T00:03:58;9.83;;;5.13;;
70715;SDS011;59053;50.832;12.882;2022-10-26T00:06:24;17.23;;;5.07;;
70715;SDS011;59053;50.832;12.882;2022-10-26T00:09:01;11.70;;;5.00;;
70715;SDS011;59053;50.832;12.882;2022-10-26T00:11:27;10.93;;;5.20;;
70715;SDS011;59053;50.832;12.882;2022-10-26T00:13:52;11.53;;;5.10;;
70715;SDS011;59053;50.832;12.882;2022-10-26T00:16:33;10.97;;;5.07;;
70715;SDS011;59053;50.832;12.882;2022-10-26T00:18:58;9.68;;;4.65;;
70715;SDS011;59053;50.832;12.882;2022-10-26T00:21:25;15.27;;;5.75;;
70715;SDS011;59053;50.832;12.882;2022-10-26T00:23:52;12.23;;;5.23;;
70715;SDS011;59053;50.832;12.882;2022-10-26T00:26:17;12.00;;;5.40;;
70715;SDS011;59053;50.832;12.882;2022-10-26T00:28:42;13.50;;;5.23;;
70715;SDS011;59053;50.832;12.882;2022-10-26T00:31:13;13.10;;;5.55;;
70715;SDS011;59053;50.832;12.882;2022-10-26T00:33:39;10.10;;;5.13;;
70715;SDS011;59053;50.832;12.882;2022-10-26T00:36:04;11.20;;;5.50;;
70715;SDS011;59053;50.832;12.882;2022-10-26T00:41:31;10.65;;;5.05;;
70715;SDS011;59053;50.832;12.882;2022-10-26T00:43:55;11.03;;;4.97;;
70715;SDS011;59053;50.832;12.882;2022-10-26T00:46:23;13.63;;;5.10;;
70715;SDS011;59053;50.832;12.882;2022-10-26T00:48:54;10.60;;;5.40;;
70715;SDS011;59053;50.832;12.882;2022-10-26T00:51:31;14.32;;;5.50;;
70715;SDS011;59053;50.832;12.882;2022-10-26T00:53:58;10.95;;;5.38;;
70715;SDS011;59053;50.832;12.882;2022-10-26T00:56:26;10.95;;;5.05;;
70715;SDS011;59053;50.832;12.882;2022-10-26T00:58:52;13.23;;;5.50;;
70715;SDS011;59053;50.832;12.882;2022-10-26T01:01:19;14.93;;;5.47;;
70715;SDS011;59053;50.832;12.882;2022-10-26T01:03:47;14.20;;;5.65;;
70715;SDS011;59053;50.832;12.882;2022-10-26T01:06:15;12.75;;;5.50;;
70715;SDS011;59053;50.832;12.882;2022-10-26T01:08:42;11.60;;;4.90;;
70715;SDS011;59053;50.832;12.882;2022-10-26T01:11:08;13.43;;;5.10;;
70715;SDS011;59053;50.832;12.882;2022-10-26T01:13:38;10.80;;;5.13;;
70715;SDS011;59053;50.832;12.882;2022-10-26T01:23:32;11.27;;;5.33;;
70715;SDS011;59053;50.832;12.882;2022-10-26T01:36:40;14.60;;;5.60;;
70715;SDS011;59053;50.832;12.882;2022-10-26T01:42:07;11.52;;;5.15;;
70715;SDS011;59053;50.832;12.882;2022-10-26T01:44:38;12.80;;;5.22;;
70715;SDS011;59053;50.832;12.882;2022-10-26T01:50:00;11.63;;;4.63;;
70715;SDS011;59053;50.832;12.882;2022-10-26T01:52:28;13.45;;;5.20;;
70715;SDS011;59053;50.832;12.882;2022-10-26T01:57:41;11.00;;;5.15;;
70715;SDS011;59053;50.832;12.882;2022-10-26T02:00:07;14.20;;;5.43;;
70715;SDS011;59053;50.832;12.882;2022-10-26T02:15:16;10.93;;;4.68;;
70715;SDS011;59053;50.832;12.882;2022-10-26T02:23:13;11.48;;;5.07;;
70715;SDS011;59053;50.832;12.882;2022-10-26T02:25:48;9.17;;;4.47;;
70715;SDS011;59053;50.832;12.882;2022-10-26T02:28:24;13.18;;;4.82;;
70715;SDS011;59053;50.832;12.882;2022-10-26T02:30:54;11.02;;;4.80;;
70715;SDS011;59053;50.832;12.882;2022-10-26T02:33:21;9.23;;;4.55;;
70715;SDS011;59053;50.832;12.882;2022-10-26T02:35:49;11.55;;;4.38;;
70715;SDS011;59053;50.832;12.882;2022-10-26T02:38:15;10.73;;;4.90;;
70715;SDS011;59053;50.832;12.882;2022-10-26T02:40:43;11.63;;;4.68;;
70715;SDS011;59053;50.832;12.882;2022-10-26T02:43:11;9.63;;;4.70;;
70715;SDS011;59053;50.832;12.882;2022-10-26T02:45:38;10.98;;;4.57;;
70715;SDS011;59053;50.832;12.882;2022-10-26T02:48:18;11.80;;;4.47;;
70715;SDS011;59053;50.832;12.882;2022-10-26T02:50:58;10.20;;;4.43;;
70715;SDS011;59053;50.832;12.882;2022-10-26T02:53:28;13.48;;;4.75;;
70715;SDS011;59053;50.832;12.882;2022-10-26T02:58:33;11.98;;;4.68;;
70715;SDS011;59053;50.832;12.882;2022-10-26T03:01:20;10.32;;;4.38;;
70715;SDS011;59053;50.832;12.882;2022-10-26T03:06:22;10.38;;;4.70;;
70715;SDS011;59053;50.832;12.882;2022-10-26T03:08:47;11.65;;;4.35;;
70715;SDS011;59053;50.832;12.882;2022-10-26T03:11:13;9.30;;;4.30;;
70715;SDS011;59053;50.832;12.882;2022-10-26T03:13:38;9.50;;;4.27;;
70715;SDS011;59053;50.832;12.882;2022-10-26T03:16:03;12.33;;;4.57;;
70715;SDS011;59053;50.832;12.882;2022-10-26T03:18:28;8.88;;;4.13;;
70715;SDS011;59053;50.832;12.882;2022-10-26T03:21:02;11.83;;;4.47;;
70715;SDS011;59053;50.832;12.882;2022-10-26T03:23:27;10.40;;;4.47;;
70715;SDS011;59053;50.832;12.882;2022-10-26T03:25:58;9.90;;;4.43;;
70715;SDS011;59053;50.832;12.882;2022-10-26T03:28:23;10.63;;;4.50;;
70715;SDS011;59053;50.832;12.882;2022-10-26T03:30:49;8.80;;;4.27;;
70715;SDS011;59053;50.832;12.882;2022-10-26T03:33:28;13.20;;;4.87;;
70715;SDS011;59053;50.832;12.882;2022-10-26T03:35:55;11.45;;;4.10;;
70715;SDS011;59053;50.832;12.882;2022-10-26T03:41:13;12.98;;;4.60;;
70715;SDS011;59053;50.832;12.882;2022-10-26T03:43:38;11.15;;;4.60;;
70715;SDS011;59053;50.832;12.882;2022-10-26T03:46:03;11.40;;;4.43;;
70715;SDS011;59053;50.832;12.882;2022-10-26T03:48:29;11.73;;;4.30;;
70715;SDS011;59053;50.832;12.882;2022-10-26T03:50:58;10.70;;;4.50;;
70715;SDS011;59053;50.832;12.882;2022-10-26T03:53:30;9.60;;;4.50;;
70715;SDS011;59053;50.832;12.882;2022-10-26T03:55:55;10.50;;;4.43;;
70715;SDS011;59053;50.832;12.882;2022-10-26T03:58:21;10.60;;;4.47;;
70715;SDS011;59053;50.832;12.882;2022-10-26T04:01:03;13.13;;;4.50;;
70715;SDS011;59053;50.832;12.882;2022-10-26T04:03:32;10.35;;;4.70;;
70715;SDS011;59053;50.832;12.882;2022-10-26T04:06:01;10.07;;;4.50;;
70715;SDS011;59053;50.832;12.882;2022-10-26T04:08:34;9.03;;;4.43;;
70715;SDS011;59053;50.832;12.882;2022-10-26T04:11:00;11.38;;;4.22;;
70715;SDS011;59053;50.832;12.882;2022-10-26T04:13:25;12.23;;;4.20;;
70715;SDS011;59053;50.832;12.882;2022-10-26T04:15:50;10.23;;;4.13;;
70715;SDS011;59053;50.832;12.882;2022-10-26T04:18:16;9.15;;;4.40;;
70715;SDS011;59053;50.832;12.882;2022-10-26T04:20:42;9.83;;;4.20;;
70715;SDS011;59053;50.832;12.882;2022-10-26T04:23:11;12.87;;;4.30;;
70715;SDS011;59053;50.832;12.882;2022-10-26T04:25:43;14.35;;;4.20;;
70715;SDS011;59053;50.832;12.882;2022-10-26T04:28:15;11.73;;;4.30;;
70715;SDS011;59053;50.832;12.882;2022-10-26T04:30:42;10.60;;;4.15;;
70715;SDS011;59053;50.832;12.882;2022-10-26T04:33:07;10.07;;;4.45;;
70715;SDS011;59053;50.832;12.882;2022-10-26T04:35:33;11.33;;;4.57;;
70715;SDS011;59053;50.832;12.882;2022-10-26T04:37:59;14.47;;;4.40;;
70715;SDS011;59053;50.832;12.882;2022-10-26T04:40:26;14.85;;;4.53;;
70715;SDS011;59053;50.832;12.882;2022-10-26T04:42:51;13.38;;;4.50;;
70715;SDS011;59053;50.832;12.882;2022-10-26T04:45:16;9.80;;;4.23;;
70715;SDS011;59053;50.832;12.882;2022-10-26T04:47:42;10.10;;;3.90;;
70715;SDS011;59053;50.832;12.882;2022-10-26T04:50:08;10.30;;;4.17;;
70715;SDS011;59053;50.832;12.882;2022-10-26T04:52:34;12.23;;;4.63;;
70715;SDS011;59053;50.832;12.882;2022-10-26T04:55:02;13.37;;;4.30;;
70715;SDS011;59053;50.832;12.882;2022-10-26T04:57:30;9.48;;;4.22;;
70715;SDS011;59053;50.832;12.882;2022-10-26T04:59:56;12.23;;;4.45;;
70715;SDS011;59053;50.832;12.882;2022-10-26T05:02:21;14.63;;;4.20;;
70715;SDS011;59053;50.832;12.882;2022-10-26T05:04:46;13.07;;;4.40;;
70715;SDS011;59053;50.832;12.882;2022-10-26T05:07:12;10.67;;;4.50;;
70715;SDS011;59053;50.832;12.882;2022-10-26T05:09:37;11.33;;;4.57;;
70715;SDS011;59053;50.832;12.882;2022-10-26T05:12:02;9.30;;;4.53;;
70715;SDS011;59053;50.832;12.882;2022-10-26T05:14:29;10.35;;;4.70;;
70715;SDS011;59053;50.832;12.882;2022-10-26T05:16:55;9.80;;;4.27;;
70715;SDS011;59053;50.832;12.882;2022-10-26T05:19:22;10.70;;;4.38;;
70715;SDS011;59053;50.832;12.882;2022-10-26T05:21:47;13.80;;;4.20;;
70715;SDS011;59053;50.832;12.882;2022-10-26T05:24:12;12.43;;;4.35;;
70715;SDS011;59053;50.832;12.882;2022-10-26T05:26:37;9.97;;;4.37;;
70715;SDS011;59053;50.832;12.882;2022-10-26T05:29:09;9.77;;;4.20;;
70715;SDS011;59053;50.832;12.882;2022-10-26T05:31:34;8.97;;;4.30;;
70715;SDS011;59053;50.832;12.882;2022-10-26T05:33:59;9.83;;;4.37;;
70715;SDS011;59053;50.832;12.882;2022-10-26T05:36:24;11.00;;;4.37;;
70715;SDS011;59053;50.832;12.882;2022-10-26T05:38:50;11.07;;;4.30;;
70715;SDS011;59053;50.832;12.882;2022-10-26T05:41:15;10.20;;;4.30;;
70715;SDS011;59053;50.832;12.882;2022-10-26T05:43:40;15.03;;;4.60;;
70715;SDS011;59053;50.832;12.882;2022-10-26T05:46:05;10.50;;;4.50;;
70715;SDS011;59053;50.832;12.882;2022-10-26T05:48:31;11.53;;;4.70;;
70715;SDS011;59053;50.832;12.882;2022-10-26T05:50:59;11.93;;;4.80;;
70715;SDS011;59053;50.832;12.882;2022-10-26T05:53:25;14.02;;;4.90;;
70715;SDS011;59053;50.832;12.882;2022-10-26T05:55:52;12.57;;;4.63;;
70715;SDS011;59053;50.832;12.882;2022-10-26T05:58:18;11.02;;;4.80;;
70715;SDS011;59053;50.832;12.882;2022-10-26T06:03:18;14.37;;;4.30;;
70715;SDS011;59053;50.832;12.882;2022-10-26T06:05:50;14.30;;;5.00;;
70715;SDS011;59053;50.832;12.882;2022-10-26T06:08:16;17.73;;;5.03;;
70715;SDS011;59053;50.832;12.882;2022-10-26T06:10:42;14.00;;;4.80;;
70715;SDS011;59053;50.832;12.882;2022-10-26T06:13:07;11.43;;;5.10;;
70715;SDS011;59053;50.832;12.882;2022-10-26T06:15:34;13.55;;;6.18;;
70715;SDS011;59053;50.832;12.882;2022-10-26T06:20:36;14.40;;;6.70;;
70715;SDS011;59053;50.832;12.882;2022-10-26T06:30:51;13.80;;;6.57;;
70715;SDS011;59053;50.832;12.882;2022-10-26T06:33:16;13.95;;;6.53;;
70715;SDS011;59053;50.832;12.882;2022-10-26T06:35:46;14.80;;;6.63;;
70715;SDS011;59053;50.832;12.882;2022-10-26T06:38:15;16.42;;;6.60;;
70715;SDS011;59053;50.832;12.882;2022-10-26T06:40:42;14.23;;;6.82;;
70715;SDS011;59053;50.832;12.882;2022-10-26T06:43:11;16.60;;;6.20;;
70715;SDS011;59053;50.832;12.882;2022-10-26T06:45:52;19.33;;;6.93;;
70715;SDS011;59053;50.832;12.882;2022-10-26T06:48:19;18.52;;;6.30;;
70715;SDS011;59053;50.832;12.882;2022-10-26T06:56:12;13.30;;;5.60;;
70715;SDS011;59053;50.832;12.882;2022-10-26T06:58:51;16.90;;;5.87;;
70715;SDS011;59053;50.832;12.882;2022-10-26T07:01:29;16.45;;;5.13;;
70715;SDS011;59053;50.832;12.882;2022-10-26T07:03:55;13.15;;;5.88;;
70715;SDS011;59053;50.832;12.882;2022-10-26T07:06:20;13.77;;;6.00;;
70715;SDS011;59053;50.832;12.882;2022-10-26T07:08:51;15.17;;;5.93;;
70715;SDS011;59053;50.832;12.882;2022-10-26T07:11:20;18.23;;;6.20;;
70715;SDS011;59053;50.832;12.882;2022-10-26T07:13:45;15.63;;;5.93;;
70715;SDS011;59053;50.832;12.882;2022-10-26T07:16:10;15.90;;;6.07;;
70715;SDS011;59053;50.832;12.882;2022-10-26T07:18:36;15.57;;;6.07;;
70715;SDS011;59053;50.832;12.882;2022-10-26T07:21:01;16.43;;;6.07;;
70715;SDS011;59053;50.832;12.882;2022-10-26T07:23:26;18.80;;;6.47;;
70715;SDS011;59053;50.832;12.882;2022-10-26T07:25:52;17.73;;;6.30;;
70715;SDS011;59053;50.832;12.882;2022-10-26T07:28:17;17.40;;;6.47;;
70715;SDS011;59053;50.832;12.882;2022-10-26T07:30:59;14.73;;;6.77;;
70715;SDS011;59053;50.832;12.882;2022-10-26T07:33:27;16.20;;;6.38;;
70715;SDS011;59053;50.832;12.882;2022-10-26T07:35:57;14.50;;;7.03;;
70715;SDS011;59053;50.832;12.882;2022-10-26T07:38:23;23.43;;;7.17;;
70715;SDS011;59053;50.832;12.882;2022-10-26T07:40:48;14.73;;;6.50;;
70715;SDS011;59053;50.832;12.882;2022-10-26T07:43:30;17.13;;;6.63;;
70715;SDS011;59053;50.832;12.882;2022-10-26T07:45:55;13.95;;;6.30;;
70715;SDS011;59053;50.832;12.882;2022-10-26T07:48:29;15.13;;;6.40;;
70715;SDS011;59053;50.832;12.882;2022-10-26T07:51:03;22.35;;;7.85;;
70715;SDS011;59053;50.832;12.882;2022-10-26T07:53:28;19.50;;;7.30;;
70715;SDS011;59053;50.832;12.882;2022-10-26T07:55:55;19.53;;;6.63;;
70715;SDS011;59053;50.832;12.882;2022-10-26T07:58:20;19.00;;;7.65;;
70715;SDS011;59053;50.832;12.882;2022-10-26T08:00:48;15.40;;;7.13;;
70715;SDS011;59053;50.832;12.882;2022-10-26T08:03:14;17.88;;;6.70;;
70715;SDS011;59053;50.832;12.882;2022-10-26T08:05:40;16.67;;;6.40;;
70715;SDS011;59053;50.832;12.882;2022-10-26T08:08:08;15.35;;;6.57;;
70715;SDS011;59053;50.832;12.882;2022-10-26T08:10:34;15.90;;;6.38;;
70715;SDS011;59053;50.832;12.882;2022-10-26T08:12:59;12.67;;;6.50;;
70715;SDS011;59053;50.832;12.882;2022-10-26T08:15:24;13.30;;;5.93;;
70715;SDS011;59053;50.832;12.882;2022-10-26T08:17:49;13.57;;;5.97;;
70715;SDS011;59053;50.832;12.882;2022-10-26T08:22:51;14.68;;;6.18;;
70715;SDS011;59053;50.832;12.882;2022-10-26T08:25:18;16.50;;;6.03;;
70715;SDS011;59053;50.832;12.882;2022-10-26T08:27:43;15.68;;;5.82;;
70715;SDS011;59053;50.832;12.882;2022-10-26T08:30:08;13.73;;;6.00;;
70715;SDS011;59053;50.832;12.882;2022-10-26T08:32:34;12.53;;;5.57;;
70715;SDS011;59053;50.832;12.882;2022-10-26T08:34:59;11.57;;;6.33;;
70715;SDS011;59053;50.832;12.882;2022-10-26T08:37:25;12.60;;;5.70;;
70715;SDS011;59053;50.832;12.882;2022-10-26T08:39:51;11.45;;;5.60;;
70715;SDS011;59053;50.832;12.882;2022-10-26T08:42:18;14.47;;;5.57;;
70715;SDS011;59053;50.832;12.882;2022-10-26T08:47:33;11.05;;;5.05;;
70715;SDS011;59053;50.832;12.882;2022-10-26T08:52:57;17.20;;;5.25;;
70715;SDS011;59053;50.832;12.882;2022-10-26T08:55:21;12.80;;;4.70;;
70715;SDS011;59053;50.832;12.882;2022-10-26T08:57:49;16.50;;;5.40;;
70715;SDS011;59053;50.832;12.882;2022-10-26T09:00:19;19.13;;;5.20;;
70715;SDS011;59053;50.832;12.882;2022-10-26T09:02:48;17.00;;;5.30;;
70715;SDS011;59053;50.832;12.882;2022-10-26T09:05:15;14.15;;;5.35;;
70715;SDS011;59053;50.832;12.882;2022-10-26T09:15:27;9.73;;;4.50;;
70715;SDS011;59053;50.832;12.882;2022-10-26T09:26:22;11.60;;;5.05;;
70715;SDS011;59053;50.832;12.882;2022-10-26T09:29:02;11.43;;;4.40;;
70715;SDS011;59053;50.832;12.882;2022-10-26T09:31:29;10.15;;;4.13;;
70715;SDS011;59053;50.832;12.882;2022-10-26T09:33:56;14.85;;;4.20;;
70715;SDS011;59053;50.832;12.882;2022-10-26T09:36:28;12.10;;;3.63;;
70715;SDS011;59053;50.832;12.882;2022-10-26T09:41:42;4.57;;;1.52;;
70715;SDS011;59053;50.832;12.882;2022-10-26T09:44:27;6.03;;;1.40;;
70715;SDS011;59053;50.832;12.882;2022-10-26T09:49:33;2.77;;;1.50;;
70715;SDS011;59053;50.832;12.882;2022-10-26T09:52:00;8.07;;;1.60;;
70715;SDS011;59053;50.832;12.882;2022-10-26T09:54:26;5.33;;;1.50;;
70715;SDS011;59053;50.832;12.882;2022-10-26T09:56:53;4.88;;;1.40;;
70715;SDS011;59053;50.832;12.882;2022-10-26T09:59:20;7.53;;;1.15;;
70715;SDS011;59053;50.832;12.882;2022-10-26T10:01:48;3.20;;;1.30;;
70715;SDS011;59053;50.832;12.882;2022-10-26T10:04:22;2.43;;;1.23;;
70715;SDS011;59053;50.832;12.882;2022-10-26T10:10:17;3.20;;;1.10;;
70715;SDS011;59053;50.832;12.882;2022-10-26T10:12:43;3.28;;;1.20;;
70715;SDS011;59053;50.832;12.882;2022-10-26T10:18:32;3.60;;;1.57;;
70715;SDS011;59053;50.832;12.882;2022-10-26T10:20:57;3.15;;;1.30;;
70715;SDS011;59053;50.832;12.882;2022-10-26T10:23:24;2.63;;;1.10;;
70715;SDS011;59053;50.832;12.882;2022-10-26T10:31:43;3.58;;;1.13;;
70715;SDS011;59053;50.832;12.882;2022-10-26T10:34:32;1.95;;;1.23;;
70715;SDS011;59053;50.832;12.882;2022-10-26T10:36:58;3.55;;;1.25;;
70715;SDS011;59053;50.832;12.882;2022-10-26T10:39:34;5.28;;;1.17;;
70715;SDS011;59053;50.832;12.882;2022-10-26T10:42:00;3.20;;;1.30;;
70715;SDS011;59053;50.832;12.882;2022-10-26T10:44:26;2.05;;;1.30;;
70715;SDS011;59053;50.832;12.882;2022-10-26T10:46:59;3.78;;;1.10;;
70715;SDS011;59053;50.832;12.882;2022-10-26T10:59:14;3.17;;;1.42;;
70715;SDS011;59053;50.832;12.882;2022-10-26T11:10:03;4.80;;;1.23;;
70715;SDS011;59053;50.832;12.882;2022-10-26T11:12:31;4.13;;;1.27;;
70715;SDS011;59053;50.832;12.882;2022-10-26T11:18:35;2.75;;;1.30;;
70715;SDS011;59053;50.832;12.882;2022-10-26T11:21:04;2.77;;;1.50;;
70715;SDS011;59053;50.832;12.882;2022-10-26T11:23:38;3.35;;;1.40;;
70715;SDS011;59053;50.832;12.882;2022-10-26T11:26:11;5.38;;;1.40;;
70715;SDS011;59053;50.832;12.882;2022-10-26T11:28:42;2.50;;;1.20;;
70715;SDS011;59053;50.832;12.882;2022-10-26T11:31:12;1.88;;;1.13;;
70715;SDS011;59053;50.832;12.882;2022-10-26T11:36:43;2.47;;;1.13;;
70715;SDS011;59053;50.832;12.882;2022-10-26T11:39:13;2.55;;;1.20;;
70715;SDS011;59053;50.832;12.882;2022-10-26T11:45:16;3.35;;;1.25;;
70715;SDS011;59053;50.832;12.882;2022-10-26T11:50:40;1.95;;;1.17;;
70715;SDS011;59053;50.832;12.882;2022-10-26T11:55:33;2.33;;;1.17;;
70715;SDS011;59053;50.832;12.882;2022-10-26T12:03:58;3.30;;;1.20;;
70715;SDS011;59053;50.832;12.882;2022-10-26T12:06:26;2.15;;;1.00;;
70715;SDS011;59053;50.832;12.882;2022-10-26T12:08:54;2.55;;;1.13;;
70715;SDS011;59053;50.832;12.882;2022-10-26T12:22:33;4.90;;;1.30;;
70715;SDS011;59053;50.832;12.882;2022-10-26T12:32:58;2.17;;;1.10;;
70715;SDS011;59053;50.832;12.882;2022-10-26T12:35:34;3.65;;;1.38;;
70715;SDS011;59053;50.832;12.882;2022-10-26T12:38:00;3.10;;;1.58;;
70715;SDS011;59053;50.832;12.882;2022-10-26T12:45:42;9.65;;;1.95;;
70715;SDS011;59053;50.832;12.882;2022-10-26T12:48:22;6.28;;;1.70;;
70715;SDS011;59053;50.832;12.882;2022-10-26T12:50:51;2.30;;;1.40;;
70715;SDS011;59053;50.832;12.882;2022-10-26T12:53:30;4.73;;;1.80;;
70715;SDS011;59053;50.832;12.882;2022-10-26T12:56:01;3.45;;;1.60;;
70715;SDS011;59053;50.832;12.882;2022-10-26T13:11:31;3.88;;;1.42;;
70715;SDS011;59053;50.832;12.882;2022-10-26T13:16:44;2.63;;;1.25;;
70715;SDS011;59053;50.832;12.882;2022-10-26T13:19:26;3.60;;;1.15;;
70715;SDS011;59053;50.832;12.882;2022-10-26T13:21:54;3.83;;;1.40;;
70715;SDS011;59053;50.832;12.882;2022-10-26T13:24:23;1.98;;;1.13;;
70715;SDS011;59053;50.832;12.882;2022-10-26T13:29:31;5.30;;;1.48;;
70715;SDS011;59053;50.832;12.882;2022-10-26T13:31:56;4.82;;;1.73;;
70715;SDS011;59053;50.832;12.882;2022-10-26T13:37:30;4.25;;;1.45;;
70715;SDS011;59053;50.832;12.882;2022-10-26T13:40:09;7.95;;;1.48;;
70715;SDS011;59053;50.832;12.882;2022-10-26T13:42:52;4.47;;;1.60;;
70715;SDS011;59053;50.832;12.882;2022-10-26T13:45:29;2.50;;;1.42;;
70715;SDS011;59053;50.832;12.882;2022-10-26T13:54:06;2.35;;;1.50;;
70715;SDS011;59053;50.832;12.882;2022-10-26T13:59:39;3.85;;;1.40;;
70715;SDS011;59053;50.832;12.882;2022-10-26T14:02:27;2.40;;;1.20;;
70715;SDS011;59053;50.832;12.882;2022-10-26T14:04:52;2.83;;;1.42;;
70715;SDS011;59053;50.832;12.882;2022-10-26T14:10:52;5.10;;;1.90;;
70715;SDS011;59053;50.832;12.882;2022-10-26T14:13:20;3.35;;;1.50;;
70715;SDS011;59053;50.832;12.882;2022-10-26T14:15:54;3.43;;;1.43;;
70715;SDS011;59053;50.832;12.882;2022-10-26T14:18:26;3.22;;;1.50;;
70715;SDS011;59053;50.832;12.882;2022-10-26T14:21:05;3.28;;;1.35;;
70715;SDS011;59053;50.832;12.882;2022-10-26T14:23:51;5.32;;;1.70;;
70715;SDS011;59053;50.832;12.882;2022-10-26T14:26:26;4.38;;;1.50;;
70715;SDS011;59053;50.832;12.882;2022-10-26T14:28:57;2.70;;;1.47;;
70715;SDS011;59053;50.832;12.882;2022-10-26T14:33:47;4.33;;;1.40;;
70715;SDS011;59053;50.832;12.882;2022-10-26T14:36:24;4.73;;;1.43;;
70715;SDS011;59053;50.832;12.882;2022-10-26T14:38:54;2.90;;;1.50;;
70715;SDS011;59053;50.832;12.882;2022-10-26T14:41:29;5.53;;;1.45;;
70715;SDS011;59053;50.832;12.882;2022-10-26T14:43:55;5.72;;;1.65;;
70715;SDS011;59053;50.832;12.882;2022-10-26T14:46:21;5.33;;;1.50;;
70715;SDS011;59053;50.832;12.882;2022-10-26T14:48:50;3.17;;;1.40;;
70715;SDS011;59053;50.832;12.882;2022-10-26T14:51:16;3.60;;;1.70;;
70715;SDS011;59053;50.832;12.882;2022-10-26T14:53:50;3.67;;;1.83;;
70715;SDS011;59053;50.832;12.882;2022-10-26T15:02:27;3.05;;;1.60;;
70715;SDS011;59053;50.832;12.882;2022-10-26T15:04:37;2.97;;;1.60;;
70715;SDS011;59053;50.832;12.882;2022-10-26T15:09:45;4.10;;;1.88;;
70715;SDS011;59053;50.832;12.882;2022-10-26T15:12:22;3.38;;;1.70;;
70715;SDS011;59053;50.832;12.882;2022-10-26T15:14:51;5.05;;;1.80;;
70715;SDS011;59053;50.832;12.882;2022-10-26T15:17:23;2.70;;;1.60;;
70715;SDS011;59053;50.832;12.882;2022-10-26T15:20:05;4.45;;;2.13;;
70715;SDS011;59053;50.832;12.882;2022-10-26T15:22:31;6.30;;;2.15;;
70715;SDS011;59053;50.832;12.882;2022-10-26T15:33:29;4.18;;;1.83;;
70715;SDS011;59053;50.832;12.882;2022-10-26T15:42:04;5.65;;;2.17;;
70715;SDS011;59053;50.832;12.882;2022-10-26T15:44:40;3.93;;;2.20;;
70715;SDS011;59053;50.832;12.882;2022-10-26T15:47:08;6.72;;;2.42;;
70715;SDS011;59053;50.832;12.882;2022-10-26T15:49:41;6.65;;;2.45;;
70715;SDS011;59053;50.832;12.882;2022-10-26T15:52:07;6.63;;;2.57;;
70715;SDS011;59053;50.832;12.882;2022-10-26T15:54:33;8.52;;;2.40;;
70715;SDS011;59053;50.832;12.882;2022-10-26T15:56:58;5.90;;;2.80;;
70715;SDS011;59053;50.832;12.882;2022-10-26T15:59:24;6.93;;;2.88;;
70715;SDS011;59053;50.832;12.882;2022-10-26T16:01:49;6.93;;;2.67;;
70715;SDS011;59053;50.832;12.882;2022-10-26T16:07:30;6.13;;;2.73;;
70715;SDS011;59053;50.832;12.882;2022-10-26T16:10:01;6.43;;;2.70;;
70715;SDS011;59053;50.832;12.882;2022-10-26T16:12:34;7.28;;;3.22;;
70715;SDS011;59053;50.832;12.882;2022-10-26T16:14:59;8.10;;;3.00;;
70715;SDS011;59053;50.832;12.882;2022-10-26T16:17:32;9.32;;;2.90;;
70715;SDS011;59053;50.832;12.882;2022-10-26T16:20:05;7.63;;;3.03;;
70715;SDS011;59053;50.832;12.882;2022-10-26T16:22:32;6.10;;;2.85;;
70715;SDS011;59053;50.832;12.882;2022-10-26T16:27:52;7.30;;;3.00;;
70715;SDS011;59053;50.832;12.882;2022-10-26T16:30:19;8.30;;;3.20;;
70715;SDS011;59053;50.832;12.882;2022-10-26T16:32:45;9.13;;;3.47;;
70715;SDS011;59053;50.832;12.882;2022-10-26T16:35:10;10.20;;;3.40;;
70715;SDS011;59053;50.832;12.882;2022-10-26T16:37:36;8.50;;;3.83;;
70715;SDS011;59053;50.832;12.882;2022-10-26T16:42:39;8.43;;;3.90;;
70715;SDS011;59053;50.832;12.882;2022-10-26T16:45:10;11.00;;;4.07;;
70715;SDS011;59053;50.832;12.882;2022-10-26T16:47:43;14.07;;;4.60;;
70715;SDS011;59053;50.832;12.882;2022-10-26T16:53:06;8.87;;;4.30;;
70715;SDS011;59053;50.832;12.882;2022-10-26T16:55:31;9.23;;;3.97;;
70715;SDS011;59053;50.832;12.882;2022-10-26T16:57:56;14.53;;;4.23;;
70715;SDS011;59053;50.832;12.882;2022-10-26T17:00:23;10.07;;;4.37;;
70715;SDS011;59053;50.832;12.882;2022-10-26T17:05:35;11.45;;;4.55;;
70715;SDS011;59053;50.832;12.882;2022-10-26T17:11:09;10.15;;;4.80;;
70715;SDS011;59053;50.832;12.882;2022-10-26T17:13:38;12.32;;;4.97;;
70715;SDS011;59053;50.832;12.882;2022-10-26T17:16:05;9.23;;;4.43;;
70715;SDS011;59053;50.832;12.882;2022-10-26T17:18:32;12.67;;;4.30;;
70715;SDS011;59053;50.832;12.882;2022-10-26T17:21:03;10.88;;;4.38;;
70715;SDS011;59053;50.832;12.882;2022-10-26T17:23:30;11.02;;;4.50;;
70715;SDS011;59053;50.832;12.882;2022-10-26T17:26:00;12.27;;;4.50;;
70715;SDS011;59053;50.832;12.882;2022-10-26T17:28:25;11.10;;;4.05;;
70715;SDS011;59053;50.832;12.882;2022-10-26T17:30:50;12.17;;;4.20;;
70715;SDS011;59053;50.832;12.882;2022-10-26T17:33:20;10.68;;;4.00;;
70715;SDS011;59053;50.832;12.882;2022-10-26T17:35:51;9.63;;;3.93;;
70715;SDS011;59053;50.832;12.882;2022-10-26T17:38:34;8.90;;;3.90;;
70715;SDS011;59053;50.832;12.882;2022-10-26T17:41:00;8.52;;;4.10;;
70715;SDS011;59053;50.832;12.882;2022-10-26T17:43:32;9.18;;;3.97;;
70715;SDS011;59053;50.832;12.882;2022-10-26T17:45:58;12.02;;;4.30;;
70715;SDS011;59053;50.832;12.882;2022-10-26T17:48:31;8.73;;;4.20;;
70715;SDS011;59053;50.832;12.882;2022-10-26T17:51:02;9.85;;;4.50;;
70715;SDS011;59053;50.832;12.882;2022-10-26T17:53:28;7.95;;;4.00;;
70715;SDS011;59053;50.832;12.882;2022-10-26T17:58:41;11.07;;;4.60;;
70715;SDS011;59053;50.832;12.882;2022-10-26T18:01:08;10.63;;;4.70;;
70715;SDS011;59053;50.832;12.882;2022-10-26T18:03:36;9.55;;;4.75;;
70715;SDS011;59053;50.832;12.882;2022-10-26T18:08:48;11.30;;;4.57;;
70715;SDS011;59053;50.832;12.882;2022-10-26T18:11:20;13.20;;;5.20;;
70715;SDS011;59053;50.832;12.882;2022-10-26T18:13:46;11.82;;;4.80;;
70715;SDS011;59053;50.832;12.882;2022-10-26T18:16:15;9.67;;;4.50;;
70715;SDS011;59053;50.832;12.882;2022-10-26T18:18:52;8.85;;;4.95;;
70715;SDS011;59053;50.832;12.882;2022-10-26T18:21:22;12.45;;;4.90;;
70715;SDS011;59053;50.832;12.882;2022-10-26T18:23:48;12.18;;;4.75;;
70715;SDS011;59053;50.832;12.882;2022-10-26T18:26:23;11.50;;;5.10;;
70715;SDS011;59053;50.832;12.882;2022-10-26T18:29:06;12.23;;;5.68;;
70715;SDS011;59053;50.832;12.882;2022-10-26T18:34:24;10.23;;;5.35;;
70715;SDS011;59053;50.832;12.882;2022-10-26T18:36:49;11.75;;;5.45;;
70715;SDS011;59053;50.832;12.882;2022-10-26T18:39:19;12.17;;;5.30;;
70715;SDS011;59053;50.832;12.882;2022-10-26T18:41:57;13.40;;;5.50;;
70715;SDS011;59053;50.832;12.882;2022-10-26T18:44:30;11.17;;;5.50;;
70715;SDS011;59053;50.832;12.882;2022-10-26T18:47:04;13.60;;;6.00;;
70715;SDS011;59053;50.832;12.882;2022-10-26T18:49:29;13.57;;;6.15;;
70715;SDS011;59053;50.832;12.882;2022-10-26T18:51:54;15.80;;;6.27;;
70715;SDS011;59053;50.832;12.882;2022-10-26T18:54:19;11.67;;;6.00;;
70715;SDS011;59053;50.832;12.882;2022-10-26T18:56:45;12.20;;;5.97;;
70715;SDS011;59053;50.832;12.882;2022-10-26T18:59:10;17.33;;;6.47;;
70715;SDS011;59053;50.832;12.882;2022-10-26T19:01:37;12.18;;;6.13;;